sensor_id;sensor_type;location;lat;lon;timestamp;pressure;altitude;pressure_sealevel;temperature;humidity
18858;BME280;9558;50.178;8.370;2024-03-06T00:00:58;98293.06;;;4.89;100.00
18858;BME280;9558;50.178;8.370;2024-03-06T00:03:44;98293.72;;;4.91;100.00
18858;BME280;9558;50.178;8.370;2024-03-06T00:06:31;98295.63;;;4.89;100.00
18858;BME280;9558;50.178;8.370;2024-03-06T00:09:18;98308.44;;;4.89;100.00
18858;BME280;9558;50.178;8.370;2024-03-06T00:12:05;98316.00;;;4.91;100.00
18858;BME280;9558;50.178;8.370;2024-03-06T00:14:53;98310.06;;;4.90;100.00
18858;BME280;9558;50.178;8.370;2024-03-06T00:17:41;98314.09;;;4.93;100.00
18858;BME280;9558;50.178;8.370;2024-03-06T00:20:27;98313.97;;;4.94;100.00
18858;BME280;9558;50.178;8.370;2024-03-06T00:23:14;98318.16;;;4.95;100.00
18858;BME280;9558;50.178;8.370;2024-03-06T00:26:01;98323.97;;;4.97;100.00
18858;BME280;9558;50.178;8.370;2024-03-06T00:28:48;98317.34;;;4.95;100.00
18858;BME280;9558;50.178;8.370;2024-03-06T00:31:36;98322.06;;;4.99;100.00
18858;BME280;9558;50.178;8.370;2024-03-06T00:34:23;98327.06;;;5.01;100.00
18858;BME280;9558;50.178;8.370;2024-03-06T00:37:10;98334.91;;;4.99;100.00
18858;BME280;9558;50.178;8.370;2024-03-06T00:39:57;98333.00;;;5.01;100.00
18858;BME280;9558;50.178;8.370;2024-03-06T00:42:44;98335.31;;;5.05;100.00
18858;BME280;9558;50.178;8.370;2024-03-06T00:45:31;98327.47;;;5.06;100.00
18858;BME280;9558;50.178;8.370;2024-03-06T00:48:19;98330.97;;;5.05;100.00
18858;BME280;9558;50.178;8.370;2024-03-06T00:51:06;98338.13;;;5.01;100.00
18858;BME280;9558;50.178;8.370;2024-03-06T00:53:53;98330.19;;;4.95;100.00
18858;BME280;9558;50.178;8.370;2024-03-06T00:56:40;98332.47;;;4.88;100.00
18858;BME280;9558;50.178;8.370;2024-03-06T00:59:27;98335.28;;;4.85;100.00
18858;BME280;9558;50.178;8.370;2024-03-06T01:02:14;98324.91;;;4.77;100.00
18858;BME280;9558;50.178;8.370;2024-03-06T01:05:02;98329.06;;;4.68;100.00
18858;BME280;9558;50.178;8.370;2024-03-06T01:07:49;98333.13;;;4.61;100.00
18858;BME280;9558;50.178;8.370;2024-03-06T01:10:36;98331.38;;;4.52;100.00
18858;BME280;9558;50.178;8.370;2024-03-06T01:13:23;98341.97;;;4.47;100.00
18858;BME280;9558;50.178;8.370;2024-03-06T01:16:10;98335.91;;;4.38;100.00
18858;BME280;9558;50.178;8.370;2024-03-06T01:18:57;98340.72;;;4.31;100.00
18858;BME280;9558;50.178;8.370;2024-03-06T01:21:45;98336.13;;;4.25;100.00
18858;BME280;9558;50.178;8.370;2024-03-06T01:24:32;98335.97;;;4.17;100.00
18858;BME280;9558;50.178;8.370;2024-03-06T01:27:18;98334.88;;;4.10;100.00
18858;BME280;9558;50.178;8.370;2024-03-06T01:30:06;98328.09;;;3.99;100.00
18858;BME280;9558;50.178;8.370;2024-03-06T01:32:53;98328.06;;;3.89;100.00
18858;BME280;9558;50.178;8.370;2024-03-06T01:35:40;98332.09;;;3.82;100.00
18858;BME280;9558;50.178;8.370;2024-03-06T01:38:28;98338.91;;;3.72;100.00
18858;BME280;9558;50.178;8.370;2024-03-06T01:41:15;98342.09;;;3.64;100.00
18858;BME280;9558;50.178;8.370;2024-03-06T01:44:02;98338.53;;;3.55;100.00
18858;BME280;9558;50.178;8.370;2024-03-06T01:46:49;98338.13;;;3.50;100.00
18858;BME280;9558;50.178;8.370;2024-03-06T01:49:35;98343.59;;;3.45;100.00
18858;BME280;9558;50.178;8.370;2024-03-06T01:52:23;98343.31;;;3.39;100.00
18858;BME280;9558;50.178;8.370;2024-03-06T01:55:12;98346.22;;;3.34;100.00
18858;BME280;9558;50.178;8.370;2024-03-06T01:57:59;98347.28;;;3.32;100.00
18858;BME280;9558;50.178;8.370;2024-03-06T02:00:48;98348.59;;;3.26;100.00
18858;BME280;9558;50.178;8.370;2024-03-06T02:03:36;98354.31;;;3.18;100.00
18858;BME280;9558;50.178;8.370;2024-03-06T02:06:22;98356.56;;;3.11;100.00
18858;BME280;9558;50.178;8.370;2024-03-06T02:09:09;98356.78;;;3.08;100.00
18858;BME280;9558;50.178;8.370;2024-03-06T02:11:57;98355.41;;;3.04;100.00
18858;BME280;9558;50.178;8.370;2024-03-06T02:14:44;98358.09;;;3.03;100.00
18858;BME280;9558;50.178;8.370;2024-03-06T02:17:31;98359.97;;;3.01;100.00
18858;BME280;9558;50.178;8.370;2024-03-06T02:20:23;98358.22;;;3.01;100.00
18858;BME280;9558;50.178;8.370;2024-03-06T02:23:10;98361.59;;;3.02;100.00
18858;BME280;9558;50.178;8.370;2024-03-06T02:25:56;98364.16;;;3.02;100.00
18858;BME280;9558;50.178;8.370;2024-03-06T02:28:47;98363.22;;;3.03;100.00
18858;BME280;9558;50.178;8.370;2024-03-06T02:31:35;98364.84;;;3.04;100.00
18858;BME280;9558;50.178;8.370;2024-03-06T02:34:22;98358.81;;;3.05;100.00
18858;BME280;9558;50.178;8.370;2024-03-06T02:37:11;98355.06;;;3.09;100.00
18858;BME280;9558;50.178;8.370;2024-03-06T02:39:57;98366.91;;;3.10;100.00
18858;BME280;9558;50.178;8.370;2024-03-06T02:42:45;98361.69;;;3.11;100.00
18858;BME280;9558;50.178;8.370;2024-03-06T02:45:31;98363.16;;;3.14;100.00
18858;BME280;9558;50.178;8.370;2024-03-06T02:48:19;98361.09;;;3.08;100.00
18858;BME280;9558;50.178;8.370;2024-03-06T02:51:05;98363.00;;;3.06;100.00
18858;BME280;9558;50.178;8.370;2024-03-06T02:53:54;98356.78;;;3.08;100.00
18858;BME280;9558;50.178;8.370;2024-03-06T02:56:41;98356.25;;;3.05;100.00
18858;BME280;9558;50.178;8.370;2024-03-06T02:59:28;98364.03;;;3.03;100.00
18858;BME280;9558;50.178;8.370;2024-03-06T03:02:14;98362.53;;;3.01;100.00
18858;BME280;9558;50.178;8.370;2024-03-06T03:05:01;98359.41;;;2.97;100.00
18858;BME280;9558;50.178;8.370;2024-03-06T03:07:50;98358.84;;;2.93;100.00
18858;BME280;9558;50.178;8.370;2024-03-06T03:10:39;98363.38;;;2.90;100.00
18858;BME280;9558;50.178;8.370;2024-03-06T03:13:26;98365.38;;;2.86;100.00
18858;BME280;9558;50.178;8.370;2024-03-06T03:16:16;98374.22;;;2.82;100.00
18858;BME280;9558;50.178;8.370;2024-03-06T03:19:04;98369.34;;;2.79;100.00
18858;BME280;9558;50.178;8.370;2024-03-06T03:21:51;98374.47;;;2.79;100.00
18858;BME280;9558;50.178;8.370;2024-03-06T03:24:38;98373.53;;;2.80;100.00
18858;BME280;9558;50.178;8.370;2024-03-06T03:27:26;98372.28;;;2.74;100.00
18858;BME280;9558;50.178;8.370;2024-03-06T03:30:13;98373.06;;;2.75;100.00
18858;BME280;9558;50.178;8.370;2024-03-06T03:33:01;98372.38;;;2.73;100.00
18858;BME280;9558;50.178;8.370;2024-03-06T03:35:48;98378.66;;;2.69;100.00
18858;BME280;9558;50.178;8.370;2024-03-06T03:38:35;98377.16;;;2.66;100.00
18858;BME280;9558;50.178;8.370;2024-03-06T03:41:25;98368.66;;;2.66;100.00
18858;BME280;9558;50.178;8.370;2024-03-06T03:44:14;98373.09;;;2.64;100.00
18858;BME280;9558;50.178;8.370;2024-03-06T03:47:01;98364.50;;;2.65;100.00
18858;BME280;9558;50.178;8.370;2024-03-06T03:49:48;98366.59;;;2.59;100.00
18858;BME280;9558;50.178;8.370;2024-03-06T03:52:34;98369.63;;;2.53;100.00
18858;BME280;9558;50.178;8.370;2024-03-06T03:55:21;98375.78;;;2.51;100.00
18858;BME280;9558;50.178;8.370;2024-03-06T03:58:08;98384.50;;;2.48;100.00
18858;BME280;9558;50.178;8.370;2024-03-06T04:00:56;98381.13;;;2.48;100.00
18858;BME280;9558;50.178;8.370;2024-03-06T04:03:43;98385.41;;;2.47;100.00
18858;BME280;9558;50.178;8.370;2024-03-06T04:06:30;98380.66;;;2.42;100.00
18858;BME280;9558;50.178;8.370;2024-03-06T04:09:17;98381.50;;;2.43;100.00
18858;BME280;9558;50.178;8.370;2024-03-06T04:12:04;98388.22;;;2.44;100.00
18858;BME280;9558;50.178;8.370;2024-03-06T04:14:50;98387.53;;;2.42;100.00
18858;BME280;9558;50.178;8.370;2024-03-06T04:17:39;98396.94;;;2.41;100.00
18858;BME280;9558;50.178;8.370;2024-03-06T04:20:26;98394.41;;;2.41;100.00
18858;BME280;9558;50.178;8.370;2024-03-06T04:23:13;98394.16;;;2.45;100.00
18858;BME280;9558;50.178;8.370;2024-03-06T04:26:00;98398.44;;;2.44;100.00
18858;BME280;9558;50.178;8.370;2024-03-06T04:28:47;98409.13;;;2.49;100.00
18858;BME280;9558;50.178;8.370;2024-03-06T04:31:35;98409.81;;;2.51;100.00
18858;BME280;9558;50.178;8.370;2024-03-06T04:34:23;98410.63;;;2.52;100.00
18858;BME280;9558;50.178;8.370;2024-03-06T04:37:10;98414.91;;;2.51;100.00
18858;BME280;9558;50.178;8.370;2024-03-06T04:39:56;98413.75;;;2.44;100.00
18858;BME280;9558;50.178;8.370;2024-03-06T04:42:45;98412.16;;;2.43;100.00
18858;BME280;9558;50.178;8.370;2024-03-06T04:45:32;98419.94;;;2.41;100.00
18858;BME280;9558;50.178;8.370;2024-03-06T04:48:18;98416.31;;;2.44;100.00
18858;BME280;9558;50.178;8.370;2024-03-06T04:51:06;98420.75;;;2.42;100.00
18858;BME280;9558;50.178;8.370;2024-03-06T04:53:55;98422.50;;;2.41;100.00
18858;BME280;9558;50.178;8.370;2024-03-06T04:56:42;98424.09;;;2.42;100.00
18858;BME280;9558;50.178;8.370;2024-03-06T04:59:29;98423.72;;;2.47;100.00
18858;BME280;9558;50.178;8.370;2024-03-06T05:02:15;98430.03;;;2.43;100.00
18858;BME280;9558;50.178;8.370;2024-03-06T05:05:04;98427.47;;;2.43;100.00
18858;BME280;9558;50.178;8.370;2024-03-06T05:07:52;98432.59;;;2.43;100.00
18858;BME280;9558;50.178;8.370;2024-03-06T05:10:39;98429.09;;;2.44;100.00
18858;BME280;9558;50.178;8.370;2024-03-06T05:13:26;98443.59;;;2.44;100.00
18858;BME280;9558;50.178;8.370;2024-03-06T05:16:12;98434.19;;;2.44;100.00
18858;BME280;9558;50.178;8.370;2024-03-06T05:18:59;98446.84;;;2.46;100.00
18858;BME280;9558;50.178;8.370;2024-03-06T05:21:46;98449.41;;;2.46;100.00
18858;BME280;9558;50.178;8.370;2024-03-06T05:24:34;98450.34;;;2.45;100.00
18858;BME280;9558;50.178;8.370;2024-03-06T05:27:21;98450.34;;;2.45;100.00
18858;BME280;9558;50.178;8.370;2024-03-06T05:30:08;98459.72;;;2.44;100.00
18858;BME280;9558;50.178;8.370;2024-03-06T05:32:55;98452.91;;;2.45;100.00
18858;BME280;9558;50.178;8.370;2024-03-06T05:35:42;98456.03;;;2.48;100.00
18858;BME280;9558;50.178;8.370;2024-03-06T05:38:29;98462.41;;;2.42;100.00
18858;BME280;9558;50.178;8.370;2024-03-06T05:41:17;98473.56;;;2.41;100.00
18858;BME280;9558;50.178;8.370;2024-03-06T05:44:04;98479.00;;;2.37;100.00
18858;BME280;9558;50.178;8.370;2024-03-06T05:46:51;98484.34;;;2.34;100.00
18858;BME280;9558;50.178;8.370;2024-03-06T05:49:38;98488.06;;;2.30;100.00
18858;BME280;9558;50.178;8.370;2024-03-06T05:52:24;98487.94;;;2.31;100.00
18858;BME280;9558;50.178;8.370;2024-03-06T05:55:11;98487.50;;;2.26;100.00
18858;BME280;9558;50.178;8.370;2024-03-06T05:57:59;98490.16;;;2.24;100.00
18858;BME280;9558;50.178;8.370;2024-03-06T06:00:46;98491.19;;;2.22;100.00
18858;BME280;9558;50.178;8.370;2024-03-06T06:03:33;98499.78;;;2.21;100.00
18858;BME280;9558;50.178;8.370;2024-03-06T06:06:20;98500.81;;;2.18;100.00
18858;BME280;9558;50.178;8.370;2024-03-06T06:09:07;98502.78;;;2.15;100.00
18858;BME280;9558;50.178;8.370;2024-03-06T06:11:58;98503.69;;;2.14;100.00
18858;BME280;9558;50.178;8.370;2024-03-06T06:14:46;98510.69;;;2.12;100.00
18858;BME280;9558;50.178;8.370;2024-03-06T06:17:33;98505.78;;;2.08;100.00
18858;BME280;9558;50.178;8.370;2024-03-06T06:20:20;98521.44;;;2.04;100.00
18858;BME280;9558;50.178;8.370;2024-03-06T06:23:07;98527.56;;;2.01;100.00
18858;BME280;9558;50.178;8.370;2024-03-06T06:25:54;98526.75;;;2.01;100.00
18858;BME280;9558;50.178;8.370;2024-03-06T06:28:41;98529.31;;;2.01;100.00
18858;BME280;9558;50.178;8.370;2024-03-06T06:31:29;98531.97;;;1.99;100.00
18858;BME280;9558;50.178;8.370;2024-03-06T06:34:16;98531.97;;;1.99;100.00
18858;BME280;9558;50.178;8.370;2024-03-06T06:37:04;98530.47;;;1.97;100.00
18858;BME280;9558;50.178;8.370;2024-03-06T06:39:50;98536.47;;;1.96;100.00
18858;BME280;9558;50.178;8.370;2024-03-06T06:42:37;98540.78;;;1.95;100.00
18858;BME280;9558;50.178;8.370;2024-03-06T06:45:24;98544.84;;;1.98;100.00
18858;BME280;9558;50.178;8.370;2024-03-06T06:48:13;98547.06;;;2.02;100.00
18858;BME280;9558;50.178;8.370;2024-03-06T06:51:00;98554.63;;;2.04;100.00
18858;BME280;9558;50.178;8.370;2024-03-06T06:53:48;98557.66;;;2.09;100.00
18858;BME280;9558;50.178;8.370;2024-03-06T06:56:34;98553.75;;;2.16;100.00
18858;BME280;9558;50.178;8.370;2024-03-06T06:59:21;98557.34;;;2.25;100.00
18858;BME280;9558;50.178;8.370;2024-03-06T07:02:08;98566.19;;;2.32;100.00
18858;BME280;9558;50.178;8.370;2024-03-06T07:04:57;98560.50;;;2.40;100.00
18858;BME280;9558;50.178;8.370;2024-03-06T07:07:44;98563.06;;;2.51;100.00
18858;BME280;9558;50.178;8.370;2024-03-06T07:10:31;98572.63;;;2.61;100.00
18858;BME280;9558;50.178;8.370;2024-03-06T07:13:18;98572.53;;;2.73;100.00
18858;BME280;9558;50.178;8.370;2024-03-06T07:16:05;98569.63;;;2.89;100.00
18858;BME280;9558;50.178;8.370;2024-03-06T07:18:52;98575.22;;;3.06;100.00
18858;BME280;9558;50.178;8.370;2024-03-06T07:21:40;98573.88;;;3.23;100.00
18858;BME280;9558;50.178;8.370;2024-03-06T07:24:27;98564.91;;;3.40;100.00
18858;BME280;9558;50.178;8.370;2024-03-06T07:27:14;98576.97;;;3.60;100.00
18858;BME280;9558;50.178;8.370;2024-03-06T07:30:01;98574.16;;;3.75;100.00
18858;BME280;9558;50.178;8.370;2024-03-06T07:32:48;98576.16;;;3.92;100.00
18858;BME280;9558;50.178;8.370;2024-03-06T07:35:35;98586.81;;;4.09;100.00
18858;BME280;9558;50.178;8.370;2024-03-06T07:38:23;98588.25;;;4.23;100.00
18858;BME280;9558;50.178;8.370;2024-03-06T07:41:10;98593.19;;;4.36;100.00
18858;BME280;9558;50.178;8.370;2024-03-06T07:43:57;98598.13;;;4.48;100.00
18858;BME280;9558;50.178;8.370;2024-03-06T07:46:44;98597.94;;;4.61;100.00
18858;BME280;9558;50.178;8.370;2024-03-06T07:49:30;98596.66;;;4.77;100.00
18858;BME280;9558;50.178;8.370;2024-03-06T07:52:17;98604.41;;;4.87;100.00
18858;BME280;9558;50.178;8.370;2024-03-06T07:55:06;98610.25;;;4.98;100.00
18858;BME280;9558;50.178;8.370;2024-03-06T07:57:53;98608.69;;;5.07;100.00
18858;BME280;9558;50.178;8.370;2024-03-06T08:00:40;98616.28;;;5.18;100.00
18858;BME280;9558;50.178;8.370;2024-03-06T08:03:26;98613.09;;;5.26;100.00
18858;BME280;9558;50.178;8.370;2024-03-06T08:06:13;98625.00;;;5.37;100.00
18858;BME280;9558;50.178;8.370;2024-03-06T08:09:01;98622.59;;;5.45;100.00
18858;BME280;9558;50.178;8.370;2024-03-06T08:11:49;98635.03;;;5.50;100.00
18858;BME280;9558;50.178;8.370;2024-03-06T08:14:36;98634.53;;;5.56;100.00
18858;BME280;9558;50.178;8.370;2024-03-06T08:17:23;98629.66;;;5.63;100.00
18858;BME280;9558;50.178;8.370;2024-03-06T08:20:11;98636.72;;;5.70;100.00
18858;BME280;9558;50.178;8.370;2024-03-06T08:22:58;98640.88;;;5.71;100.00
18858;BME280;9558;50.178;8.370;2024-03-06T08:25:45;98642.50;;;5.72;100.00
18858;BME280;9558;50.178;8.370;2024-03-06T08:28:33;98647.53;;;5.84;100.00
18858;BME280;9558;50.178;8.370;2024-03-06T08:31:20;98647.97;;;5.89;100.00
18858;BME280;9558;50.178;8.370;2024-03-06T08:34:07;98654.03;;;5.88;100.00
18858;BME280;9558;50.178;8.370;2024-03-06T08:36:54;98651.50;;;5.98;100.00
18858;BME280;9558;50.178;8.370;2024-03-06T08:39:41;98660.84;;;5.99;100.00
18858;BME280;9558;50.178;8.370;2024-03-06T08:42:27;98663.03;;;6.03;100.00
18858;BME280;9558;50.178;8.370;2024-03-06T08:45:16;98669.91;;;6.13;100.00
18858;BME280;9558;50.178;8.370;2024-03-06T08:48:03;98666.81;;;6.19;100.00
18858;BME280;9558;50.178;8.370;2024-03-06T08:50:51;98676.69;;;6.23;100.00
18858;BME280;9558;50.178;8.370;2024-03-06T08:53:38;98673.84;;;6.27;100.00
18858;BME280;9558;50.178;8.370;2024-03-06T08:56:24;98674.66;;;6.37;100.00
18858;BME280;9558;50.178;8.370;2024-03-06T08:59:11;98673.31;;;6.43;100.00
18858;BME280;9558;50.178;8.370;2024-03-06T09:02:12;98673.56;;;6.49;100.00
18858;BME280;9558;50.178;8.370;2024-03-06T09:04:59;98688.88;;;6.51;100.00
18858;BME280;9558;50.178;8.370;2024-03-06T09:07:49;98681.16;;;6.61;100.00
18858;BME280;9558;50.178;8.370;2024-03-06T09:10:35;98681.44;;;6.67;100.00
18858;BME280;9558;50.178;8.370;2024-03-06T09:13:22;98688.72;;;6.82;100.00
18858;BME280;9558;50.178;8.370;2024-03-06T09:16:09;98689.63;;;7.00;100.00
18858;BME280;9558;50.178;8.370;2024-03-06T09:18:57;98684.81;;;7.25;100.00
18858;BME280;9558;50.178;8.370;2024-03-06T09:21:44;98684.53;;;7.56;100.00
18858;BME280;9558;50.178;8.370;2024-03-06T09:24:30;98684.81;;;7.81;100.00
18858;BME280;9558;50.178;8.370;2024-03-06T09:27:17;98681.44;;;7.98;100.00
18858;BME280;9558;50.178;8.370;2024-03-06T09:30:05;98688.19;;;8.09;100.00
18858;BME280;9558;50.178;8.370;2024-03-06T09:32:52;98682.94;;;8.19;100.00
18858;BME280;9558;50.178;8.370;2024-03-06T09:35:40;98690.09;;;8.25;100.00
18858;BME280;9558;50.178;8.370;2024-03-06T09:38:30;98689.16;;;8.26;100.00
18858;BME280;9558;50.178;8.370;2024-03-06T09:41:17;98685.53;;;8.37;100.00
18858;BME280;9558;50.178;8.370;2024-03-06T09:44:04;98689.84;;;8.46;100.00
18858;BME280;9558;50.178;8.370;2024-03-06T09:46:51;98684.56;;;8.56;100.00
18858;BME280;9558;50.178;8.370;2024-03-06T09:49:39;98692.06;;;8.67;100.00
18858;BME280;9558;50.178;8.370;2024-03-06T09:52:28;98690.94;;;8.88;100.00
18858;BME280;9558;50.178;8.370;2024-03-06T09:55:15;98691.88;;;9.05;100.00
18858;BME280;9558;50.178;8.370;2024-03-06T09:58:02;98701.31;;;9.22;100.00
18858;BME280;9558;50.178;8.370;2024-03-06T10:00:51;98692.19;;;9.36;100.00
18858;BME280;9558;50.178;8.370;2024-03-06T10:03:39;98693.88;;;9.54;100.00
18858;BME280;9558;50.178;8.370;2024-03-06T10:06:27;98689.56;;;9.62;100.00
18858;BME280;9558;50.178;8.370;2024-03-06T10:09:18;98692.66;;;9.66;100.00
18858;BME280;9558;50.178;8.370;2024-03-06T10:12:06;98694.09;;;9.68;100.00
18858;BME280;9558;50.178;8.370;2024-03-06T10:14:52;98695.22;;;9.66;100.00
18858;BME280;9558;50.178;8.370;2024-03-06T10:17:40;98698.09;;;9.63;100.00
18858;BME280;9558;50.178;8.370;2024-03-06T10:20:27;98697.31;;;9.62;100.00
18858;BME280;9558;50.178;8.370;2024-03-06T10:23:14;98696.78;;;9.59;100.00
18858;BME280;9558;50.178;8.370;2024-03-06T10:26:07;98703.53;;;9.51;100.00
18858;BME280;9558;50.178;8.370;2024-03-06T10:28:53;98702.75;;;9.51;100.00
18858;BME280;9558;50.178;8.370;2024-03-06T10:31:40;98699.22;;;9.52;100.00
18858;BME280;9558;50.178;8.370;2024-03-06T10:34:28;98698.69;;;9.48;100.00
18858;BME280;9558;50.178;8.370;2024-03-06T10:37:15;98698.25;;;9.53;100.00
18858;BME280;9558;50.178;8.370;2024-03-06T10:40:03;98704.53;;;9.50;100.00
18858;BME280;9558;50.178;8.370;2024-03-06T10:42:55;98700.97;;;9.51;100.00
18858;BME280;9558;50.178;8.370;2024-03-06T10:45:47;98701.78;;;9.52;100.00
18858;BME280;9558;50.178;8.370;2024-03-06T10:48:44;98703.59;;;9.60;100.00
18858;BME280;9558;50.178;8.370;2024-03-06T10:52:08;98700.84;;;9.61;100.00
18858;BME280;9558;50.178;8.370;2024-03-06T10:58:56;98693.56;;;9.57;100.00
18858;BME280;9558;50.178;8.370;2024-03-06T11:06:10;98692.19;;;9.36;100.00
18858;BME280;9558;50.178;8.370;2024-03-06T11:09:47;98697.66;;;9.33;100.00
18858;BME280;9558;50.178;8.370;2024-03-06T11:17:05;98696.25;;;9.12;100.00
18858;BME280;9558;50.178;8.370;2024-03-06T11:27:33;98701.38;;;9.04;100.00
18858;BME280;9558;50.178;8.370;2024-03-06T11:30:54;98704.00;;;9.12;100.00
18858;BME280;9558;50.178;8.370;2024-03-06T11:34:22;98712.13;;;9.26;100.00
18858;BME280;9558;50.178;8.370;2024-03-06T11:37:53;98704.84;;;9.47;100.00
18858;BME280;9558;50.178;8.370;2024-03-06T11:41:29;98707.13;;;9.59;100.00
18858;BME280;9558;50.178;8.370;2024-03-06T11:48:35;98712.88;;;9.79;100.00
18858;BME280;9558;50.178;8.370;2024-03-06T11:52:38;98710.16;;;9.80;100.00
18858;BME280;9558;50.178;8.370;2024-03-06T11:56:14;98710.78;;;9.82;100.00
18858;BME280;9558;50.178;8.370;2024-03-06T11:59:26;98715.00;;;9.83;100.00
18858;BME280;9558;50.178;8.370;2024-03-06T12:02:56;98715.00;;;9.83;100.00
18858;BME280;9558;50.178;8.370;2024-03-06T12:07:00;98710.94;;;9.81;100.00
18858;BME280;9558;50.178;8.370;2024-03-06T12:10:08;98709.31;;;9.80;100.00
18858;BME280;9558;50.178;8.370;2024-03-06T12:13:43;98712.41;;;9.83;100.00
18858;BME280;9558;50.178;8.370;2024-03-06T12:17:18;98714.69;;;9.86;100.00
18858;BME280;9558;50.178;8.370;2024-03-06T12:28:24;98715.03;;;9.92;100.00
18858;BME280;9558;50.178;8.370;2024-03-06T12:31:37;98711.13;;;9.96;100.00
18858;BME280;9558;50.178;8.370;2024-03-06T12:35:15;98717.13;;;9.96;100.00
18858;BME280;9558;50.178;8.370;2024-03-06T12:38:55;98715.03;;;10.00;100.00
18858;BME280;9558;50.178;8.370;2024-03-06T12:42:16;98720.06;;;10.10;100.00
18858;BME280;9558;50.178;8.370;2024-03-06T12:49:55;98720.13;;;10.26;100.00
18858;BME280;9558;50.178;8.370;2024-03-06T12:52:59;98714.63;;;10.29;100.00
18858;BME280;9558;50.178;8.370;2024-03-06T12:56:31;98711.56;;;10.34;100.00
18858;BME280;9558;50.178;8.370;2024-03-06T13:06:57;98710.78;;;10.50;100.00
18858;BME280;9558;50.178;8.370;2024-03-06T13:10:22;98714.16;;;10.59;100.00
18858;BME280;9558;50.178;8.370;2024-03-06T13:17:15;98712.91;;;10.54;96.11
18858;BME280;9558;50.178;8.370;2024-03-06T13:20:44;98708.19;;;10.66;100.00
18858;BME280;9558;50.178;8.370;2024-03-06T13:27:17;98711.28;;;10.62;95.50
18858;BME280;9558;50.178;8.370;2024-03-06T13:36:20;98712.56;;;10.58;94.15
18858;BME280;9558;50.178;8.370;2024-03-06T13:39:09;98710.94;;;10.57;94.12
18858;BME280;9558;50.178;8.370;2024-03-06T13:41:56;98722.28;;;10.64;92.83
18858;BME280;9558;50.178;8.370;2024-03-06T13:44:43;98714.84;;;10.61;93.53
18858;BME280;9558;50.178;8.370;2024-03-06T13:47:30;98722.59;;;10.61;92.73
18858;BME280;9558;50.178;8.370;2024-03-06T13:50:18;98720.81;;;10.69;95.25
18858;BME280;9558;50.178;8.370;2024-03-06T13:53:05;98734.09;;;10.75;94.31
18858;BME280;9558;50.178;8.370;2024-03-06T13:55:53;98726.31;;;10.75;91.26
18858;BME280;9558;50.178;8.370;2024-03-06T13:58:40;98737.81;;;10.80;92.20
18858;BME280;9558;50.178;8.370;2024-03-06T14:01:27;98732.31;;;10.83;87.63
18858;BME280;9558;50.178;8.370;2024-03-06T14:04:14;98731.97;;;10.86;90.91
18858;BME280;9558;50.178;8.370;2024-03-06T14:07:01;98735.38;;;10.95;89.72
18858;BME280;9558;50.178;8.370;2024-03-06T14:09:49;98745.09;;;10.93;85.52
18858;BME280;9558;50.178;8.370;2024-03-06T14:12:37;98733.56;;;10.96;87.88
18858;BME280;9558;50.178;8.370;2024-03-06T14:15:24;98742.00;;;10.89;84.28
18858;BME280;9558;50.178;8.370;2024-03-06T14:18:11;98742.00;;;10.89;85.01
18858;BME280;9558;50.178;8.370;2024-03-06T14:20:58;98744.25;;;10.93;85.52
18858;BME280;9558;50.178;8.370;2024-03-06T14:23:45;98738.13;;;10.94;86.50
18858;BME280;9558;50.178;8.370;2024-03-06T14:26:33;98741.00;;;10.99;86.75
18858;BME280;9558;50.178;8.370;2024-03-06T14:29:21;98745.06;;;11.01;83.34
18858;BME280;9558;50.178;8.370;2024-03-06T14:32:08;98741.66;;;11.01;84.44
18858;BME280;9558;50.178;8.370;2024-03-06T14:34:55;98739.88;;;11.01;83.79
18858;BME280;9558;50.178;8.370;2024-03-06T14:37:42;98735.53;;;11.02;83.01
18858;BME280;9558;50.178;8.370;2024-03-06T14:40:29;98738.09;;;11.10;84.84
18858;BME280;9558;50.178;8.370;2024-03-06T14:43:17;98739.72;;;11.03;79.04
18858;BME280;9558;50.178;8.370;2024-03-06T14:46:06;98737.47;;;11.08;80.13
18858;BME280;9558;50.178;8.370;2024-03-06T14:48:54;98745.72;;;10.95;77.60
18858;BME280;9558;50.178;8.370;2024-03-06T14:51:42;98744.75;;;10.88;79.38
18858;BME280;9558;50.178;8.370;2024-03-06T14:54:28;98741.53;;;10.78;78.50
18858;BME280;9558;50.178;8.370;2024-03-06T14:57:15;98736.69;;;10.66;78.92
18858;BME280;9558;50.178;8.370;2024-03-06T15:00:03;98738.78;;;10.54;79.79
18858;BME280;9558;50.178;8.370;2024-03-06T15:02:53;98737.63;;;10.57;80.81
18858;BME280;9558;50.178;8.370;2024-03-06T15:05:43;98734.88;;;10.59;82.13
18858;BME280;9558;50.178;8.370;2024-03-06T15:08:30;98738.13;;;10.52;83.09
18858;BME280;9558;50.178;8.370;2024-03-06T15:11:19;98738.28;;;10.51;84.03
18858;BME280;9558;50.178;8.370;2024-03-06T15:14:08;98738.13;;;10.52;83.81
18858;BME280;9558;50.178;8.370;2024-03-06T15:16:55;98742.66;;;10.50;83.57
18858;BME280;9558;50.178;8.370;2024-03-06T15:19:43;98742.66;;;10.50;83.63
18858;BME280;9558;50.178;8.370;2024-03-06T15:22:30;98732.59;;;10.47;84.80
18858;BME280;9558;50.178;8.370;2024-03-06T15:25:17;98739.72;;;10.45;84.14
18858;BME280;9558;50.178;8.370;2024-03-06T15:28:05;98736.78;;;10.40;85.01
18858;BME280;9558;50.178;8.370;2024-03-06T15:30:52;98742.97;;;10.39;85.92
18858;BME280;9558;50.178;8.370;2024-03-06T15:33:39;98743.53;;;10.33;86.41
18858;BME280;9558;50.178;8.370;2024-03-06T15:36:29;98747.75;;;10.26;85.89
18858;BME280;9558;50.178;8.370;2024-03-06T15:39:16;98744.19;;;10.27;87.81
18858;BME280;9558;50.178;8.370;2024-03-06T15:42:04;98744.19;;;10.27;87.92
18858;BME280;9558;50.178;8.370;2024-03-06T15:44:53;98746.16;;;10.25;86.84
18858;BME280;9558;50.178;8.370;2024-03-06T15:47:40;98742.09;;;10.22;87.61
18858;BME280;9558;50.178;8.370;2024-03-06T15:50:29;98749.03;;;10.21;88.40
18858;BME280;9558;50.178;8.370;2024-03-06T15:53:17;98748.38;;;10.19;88.50
18858;BME280;9558;50.178;8.370;2024-03-06T15:56:04;98749.66;;;10.15;87.25
18858;BME280;9558;50.178;8.370;2024-03-06T15:58:51;98752.41;;;10.14;87.69
18858;BME280;9558;50.178;8.370;2024-03-06T16:01:39;98751.59;;;10.13;87.08
18858;BME280;9558;50.178;8.370;2024-03-06T16:04:26;98749.66;;;10.15;88.22
18858;BME280;9558;50.178;8.370;2024-03-06T16:07:13;98753.22;;;10.14;88.89
18858;BME280;9558;50.178;8.370;2024-03-06T16:10:01;98745.28;;;10.16;89.51
18858;BME280;9558;50.178;8.370;2024-03-06T16:12:48;98750.78;;;10.13;90.00